Time;durP1;ratioP1;P1;durP2;ratioP2;P2;SDS_P1;SDS_P2;PMS_P1;PMS_P2;Temp;Humidity;BMP_temperature;BMP_pressure;BME280_temperature;BME280_humidity;BME280_pressure;Samples;Min_cycle;Max_cycle;Signal;HPM_P1;HPM_P2
2021/06/16 00:01:35;;;;;;;8.93;3.40;;;487.30;2380.80;;;;;;5037726;28;20048;-82
2021/06/16 00:04:03;;;;;;;5.47;3.00;;;487.30;2380.80;;;;;;5056070;28;20024;-82
2021/06/16 00:06:28;;;;;;;6.72;3.20;;;487.30;2380.80;;;;;;5038136;28;20028;-82
2021/06/16 00:08:54;;;;;;;9.00;3.00;;;487.30;2380.80;;;;;;5037816;28;20368;-82
2021/06/16 00:11:20;;;;;;;7.05;2.97;;;487.30;2380.80;;;;;;5037858;28;20024;-82
2021/06/16 00:13:46;;;;;;;6.03;2.90;;;487.30;2380.80;;;;;;5055756;28;20021;-82
2021/06/16 00:16:12;;;;;;;5.38;2.80;;;487.30;2380.80;;;;;;5037558;28;20137;-82
2021/06/16 00:18:37;;;;;;;6.65;2.90;;;487.30;2380.80;;;;;;5037671;28;20025;-82
2021/06/16 00:21:03;;;;;;;7.72;3.08;;;487.30;2380.80;;;;;;5036731;28;20025;-82
2021/06/16 00:23:29;;;;;;;5.88;3.53;;;487.30;2380.80;;;;;;5035966;28;20139;-81
2021/06/16 00:25:55;;;;;;;6.07;3.30;;;487.20;2380.80;;;;;;5036029;28;20376;-82
2021/06/16 00:28:21;;;;;;;6.63;3.42;;;487.30;2380.80;;;;;;5036091;28;20112;-82
2021/06/16 00:30:47;;;;;;;5.82;2.97;;;487.20;2380.80;;;;;;5036318;28;20083;-82
2021/06/16 00:33:12;;;;;;;6.38;3.28;;;487.20;2380.80;;;;;;5036827;28;20119;-82
2021/06/16 00:35:38;;;;;;;6.72;3.38;;;487.20;2380.80;;;;;;5055225;28;20031;-82
2021/06/16 00:38:04;;;;;;;6.93;3.05;;;487.20;2380.80;;;;;;5036183;28;20024;-82
2021/06/16 00:40:30;;;;;;;6.00;2.95;;;487.20;2380.80;;;;;;5035442;28;20456;-82
2021/06/16 00:42:57;;;;;;;9.48;3.25;;;487.20;2380.80;;;;;;5035571;28;20021;-82
2021/06/16 00:45:24;;;;;;;5.43;3.05;;;487.20;2380.80;;;;;;5036109;28;20508;-82
2021/06/16 00:47:55;;;;;;;5.45;3.10;;;487.10;2380.80;;;;;;5037054;28;20033;-82
2021/06/16 00:50:23;;;;;;;9.43;3.08;;;487.10;2380.80;;;;;;5036468;28;20024;-82
2021/06/16 00:52:50;;;;;;;4.30;2.63;;;487.10;2380.80;;;;;;5036549;28;20520;-81
2021/06/16 00:55:15;;;;;;;5.10;2.90;;;487.10;2380.80;;;;;;5053227;28;20364;-82
2021/06/16 00:57:41;;;;;;;5.65;3.20;;;487.10;2380.80;;;;;;5053540;28;20032;-82
2021/06/16 01:00:08;;;;;;;8.52;3.05;;;487.10;2380.80;;;;;;5053527;28;20086;-82
2021/06/16 01:02:49;;;;;;;5.00;3.00;;;487.10;2380.80;;;;;;5036351;28;20045;-81
2021/06/16 01:05:16;;;;;;;5.47;3.30;;;487.20;2380.80;;;;;;5035119;28;20021;-82
2021/06/16 01:07:43;;;;;;;10.18;3.38;;;487.20;2380.80;;;;;;5035309;28;20032;-82
2021/06/16 01:10:18;;;;;;;9.50;4.22;;;487.20;2380.80;;;;;;5036904;28;20367;-82
2021/06/16 01:12:59;;;;;;;4.53;2.80;;;487.20;2380.80;;;;;;5054785;28;20150;-82
2021/06/16 01:15:29;;;;;;;7.53;3.05;;;487.20;2380.80;;;;;;5036907;28;20036;-82
2021/06/16 01:17:58;;;;;;;5.03;2.88;;;487.20;2380.80;;;;;;5036728;28;20027;-82
2021/06/16 01:20:44;;;;;;;6.45;3.15;;;487.20;2380.80;;;;;;5036331;28;20021;-82
2021/06/16 01:23:17;;;;;;;5.80;3.08;;;487.20;2380.80;;;;;;5053364;28;20107;-82
2021/06/16 01:25:47;;;;;;;6.05;3.17;;;487.20;2380.80;;;;;;5035010;28;20349;-82
2021/06/16 01:28:15;;;;;;;5.68;2.95;;;487.20;2380.80;;;;;;5034963;28;20493;-82
2021/06/16 01:30:43;;;;;;;7.40;3.20;;;487.20;2380.80;;;;;;5035945;28;20376;-82
2021/06/16 01:33:11;;;;;;;6.03;3.10;;;487.20;2380.80;;;;;;5036299;28;20106;-82
2021/06/16 01:35:40;;;;;;;6.57;3.00;;;487.20;2380.80;;;;;;5036596;28;20071;-83
2021/06/16 01:38:07;;;;;;;8.07;3.20;;;487.20;2380.80;;;;;;5036022;28;20071;-82
2021/06/16 01:40:35;;;;;;;8.35;3.75;;;487.20;2380.80;;;;;;5034821;28;20047;-82
2021/06/16 01:43:03;;;;;;;7.32;3.15;;;487.20;2380.80;;;;;;5034690;28;20457;-82
2021/06/16 01:45:32;;;;;;;5.05;3.20;;;487.20;2380.80;;;;;;5034291;28;20025;-82
2021/06/16 01:47:59;;;;;;;4.30;2.83;;;487.30;2380.80;;;;;;5035536;28;20036;-82
2021/06/16 01:50:26;;;;;;;9.02;3.15;;;487.30;2380.80;;;;;;5036155;28;20031;-82
2021/06/16 01:52:55;;;;;;;8.30;3.20;;;487.30;2380.80;;;;;;5052559;28;20120;-80
2021/06/16 01:55:22;;;;;;;6.15;3.25;;;487.20;2380.80;;;;;;5052233;28;20060;-82
2021/06/16 01:57:54;;;;;;;6.22;3.03;;;487.10;2380.80;;;;;;5034292;28;20119;-82
2021/06/16 02:00:20;;;;;;;6.72;3.22;;;487.20;2380.80;;;;;;5035081;28;20029;-82
2021/06/16 02:02:46;;;;;;;6.03;3.20;;;487.20;2380.80;;;;;;5053861;28;20045;-82
2021/06/16 02:05:17;;;;;;;5.72;3.08;;;487.20;2380.80;;;;;;5035866;28;20017;-80
2021/06/16 02:07:50;;;;;;;13.48;3.72;;;487.20;2380.80;;;;;;5052709;28;20033;-81
2021/06/16 02:10:22;;;;;;;6.20;3.90;;;487.20;2380.80;;;;;;5034466;28;20402;-82
2021/06/16 02:12:50;;;;;;;8.15;3.67;;;487.00;2380.80;;;;;;5052285;28;20036;-82
2021/06/16 02:15:17;;;;;;;6.57;4.10;;;486.80;2380.80;;;;;;5034428;28;20112;-82
2021/06/16 02:17:52;;;;;;;7.53;4.60;;;486.80;2380.80;;;;;;5035537;28;20025;-82
2021/06/16 02:20:22;;;;;;;7.70;4.30;;;486.70;2380.80;;;;;;5039510;28;20028;-82
2021/06/16 02:22:49;;;;;;;6.18;4.20;;;486.70;2380.80;;;;;;5038903;28;20021;-82
2021/06/16 02:25:19;;;;;;;7.40;3.88;;;486.70;2380.80;;;;;;5037941;28;20122;-82
2021/06/16 02:27:45;;;;;;;7.15;3.92;;;486.60;2380.80;;;;;;5038379;28;20025;-82
2021/06/16 02:30:11;;;;;;;7.65;4.15;;;486.60;2380.80;;;;;;5038897;28;20025;-82
2021/06/16 02:32:38;;;;;;;5.57;3.70;;;486.60;2380.80;;;;;;5039715;28;20017;-81
2021/06/16 02:35:06;;;;;;;5.90;3.33;;;486.40;2380.80;;;;;;5039532;28;20464;-82
2021/06/16 02:37:37;;;;;;;6.63;3.90;;;486.60;2380.80;;;;;;5039739;28;20021;-82
2021/06/16 02:40:11;;;;;;;7.38;4.38;;;486.60;2380.80;;;;;;5039577;28;20025;-82
2021/06/16 02:42:40;;;;;;;6.90;4.20;;;486.40;2380.80;;;;;;5039062;28;20120;-82
2021/06/16 02:45:07;;;;;;;6.22;3.83;;;461.70;2380.80;;;;;;5039532;28;20017;-82
2021/06/16 02:47:38;;;;;;;9.75;4.53;;;461.70;2380.80;;;;;;5039416;28;20041;-82
2021/06/16 02:50:06;;;;;;;8.13;4.93;;;461.70;2380.80;;;;;;5039288;28;20025;-82
2021/06/16 02:52:35;;;;;;;8.63;5.10;;;461.60;2380.80;;;;;;5039375;28;20028;-81
2021/06/16 02:55:04;;;;;;;8.52;5.28;;;461.40;2380.80;;;;;;5039324;28;20436;-81
2021/06/16 02:57:33;;;;;;;8.68;5.20;;;461.20;2380.80;;;;;;5038954;28;20025;-81
2021/06/16 03:00:01;;;;;;;7.47;5.55;;;461.10;2380.80;;;;;;5039198;28;20086;-82
2021/06/16 03:02:29;;;;;;;12.25;5.53;;;461.10;2380.80;;;;;;5035547;28;20041;-81
2021/06/16 03:04:57;;;;;;;7.80;5.90;;;461.10;2380.80;;;;;;5036816;28;20092;-82
2021/06/16 03:07:25;;;;;;;7.85;5.72;;;461.00;2380.80;;;;;;5035750;28;20068;-82
2021/06/16 03:09:52;;;;;;;7.38;5.15;;;461.00;2380.80;;;;;;5035376;28;20052;-82
2021/06/16 03:12:21;;;;;;;8.20;5.20;;;461.00;2380.80;;;;;;5037037;28;20024;-81
2021/06/16 03:14:48;;;;;;;8.88;4.72;;;461.10;2380.80;;;;;;5035743;28;20053;-82
2021/06/16 03:17:16;;;;;;;9.05;4.95;;;461.10;2380.80;;;;;;5035317;28;20036;-81
2021/06/16 03:19:42;;;;;;;7.40;5.00;;;461.10;2380.80;;;;;;5035391;28;20071;-82
2021/06/16 03:22:10;;;;;;;9.00;5.90;;;461.20;2380.80;;;;;;5035414;28;20029;-82
2021/06/16 03:24:38;;;;;;;9.27;6.35;;;461.10;2380.80;;;;;;5035265;28;20047;-80
2021/06/16 03:27:04;;;;;;;8.18;5.47;;;461.00;2380.80;;;;;;5035326;28;20432;-82
2021/06/16 03:29:33;;;;;;;11.60;5.82;;;461.10;2380.80;;;;;;5035040;28;20028;-82
2021/06/16 03:32:02;;;;;;;8.68;5.45;;;461.10;2380.80;;;;;;5035142;28;20400;-82
2021/06/16 03:34:28;;;;;;;9.60;5.20;;;461.00;2380.80;;;;;;5036460;28;20096;-82
2021/06/16 03:36:56;;;;;;;9.90;5.57;;;460.90;2380.80;;;;;;5036416;28;20029;-83
2021/06/16 03:39:23;;;;;;;9.38;5.63;;;460.90;2380.80;;;;;;5035033;28;20021;-82
2021/06/16 03:41:49;;;;;;;12.77;5.95;;;461.20;2380.80;;;;;;5036603;28;20046;-83
2021/06/16 03:44:16;;;;;;;11.73;5.95;;;460.80;2380.80;;;;;;5035201;28;20457;-83
2021/06/16 03:46:42;;;;;;;10.90;6.63;;;461.00;2380.80;;;;;;5034856;28;20061;-83
2021/06/16 03:49:12;;;;;;;11.18;5.80;;;460.80;2380.80;;;;;;5035183;28;20377;-83
2021/06/16 03:51:42;;;;;;;9.35;6.13;;;460.90;2380.80;;;;;;5035077;28;20052;-82
2021/06/16 03:54:12;;;;;;;10.25;5.90;;;436.10;2355.20;;;;;;5034906;28;20460;-83
2021/06/16 03:56:48;;;;;;;12.18;6.43;;;460.80;2380.80;;;;;;5035178;28;20025;-83
2021/06/16 03:59:15;;;;;;;7.47;5.40;;;460.80;2380.80;;;;;;5035026;28;20026;-83
2021/06/16 04:01:43;;;;;;;8.57;6.50;;;460.90;2380.80;;;;;;5034805;28;20049;-83
2021/06/16 04:04:10;;;;;;;8.15;5.43;;;460.80;2380.80;;;;;;5034925;28;20025;-83
2021/06/16 04:06:37;;;;;;;9.00;6.00;;;460.80;2380.80;;;;;;5034647;28;20033;-82
2021/06/16 04:09:06;;;;;;;11.82;6.28;;;461.00;2380.80;;;;;;5034802;28;20030;-83
2021/06/16 04:11:33;;;;;;;8.77;6.95;;;460.90;2380.80;;;;;;5034785;28;20496;-83
2021/06/16 04:13:59;;;;;;;9.65;6.28;;;460.80;2380.80;;;;;;5034655;28;20025;-83
2021/06/16 04:16:29;;;;;;;11.38;7.00;;;460.90;2380.80;;;;;;5034551;28;20461;-83
2021/06/16 04:18:55;;;;;;;15.15;6.68;;;461.00;2380.80;;;;;;5034662;28;20061;-83
2021/06/16 04:21:22;;;;;;;12.75;8.75;;;460.90;2380.80;;;;;;5034463;28;20056;-83
2021/06/16 04:23:49;;;;;;;12.70;6.65;;;436.00;2355.20;;;;;;5034521;28;20022;-81
2021/06/16 04:26:17;;;;;;;10.77;6.32;;;436.10;2355.20;;;;;;5034399;28;20120;-83
2021/06/16 04:28:43;;;;;;;11.07;6.65;;;436.00;2355.20;;;;;;5034425;28;20449;-83
2021/06/16 04:31:09;;;;;;;12.57;6.90;;;436.10;2355.20;;;;;;5034322;28;20040;-83
2021/06/16 04:33:35;;;;;;;9.50;6.40;;;461.10;2380.80;;;;;;5034353;28;20017;-82
2021/06/16 04:36:02;;;;;;;12.68;6.65;;;460.80;2380.80;;;;;;5033587;28;20083;-80
2021/06/16 04:38:28;;;;;;;10.40;6.55;;;460.80;2380.80;;;;;;5033931;28;20587;-80
2021/06/16 04:40:54;;;;;;;9.65;6.50;;;460.80;2380.80;;;;;;5033036;28;20036;-80
2021/06/16 04:43:20;;;;;;;10.05;7.10;;;460.90;2380.80;;;;;;5033379;28;20032;-80
2021/06/16 04:45:46;;;;;;;10.10;6.80;;;460.80;2380.80;;;;;;5033629;28;20025;-80
2021/06/16 04:48:12;;;;;;;13.25;7.45;;;460.80;2380.80;;;;;;5033290;28;20025;-79
2021/06/16 04:50:38;;;;;;;15.68;8.20;;;436.00;2355.20;;;;;;5033225;28;20021;-80
2021/06/16 04:53:04;;;;;;;12.32;7.07;;;436.00;2355.20;;;;;;5033224;28;20029;-80
2021/06/16 04:55:29;;;;;;;8.95;7.15;;;460.80;2380.80;;;;;;5033269;28;20116;-80
2021/06/16 04:57:55;;;;;;;10.68;7.25;;;460.80;2380.80;;;;;;5034681;28;20029;-80
2021/06/16 05:00:22;;;;;;;15.55;7.05;;;460.90;2380.80;;;;;;5033342;28;20029;-79
2021/06/16 05:02:55;;;;;;;10.57;6.82;;;461.00;2380.80;;;;;;5032831;28;20045;-80
2021/06/16 05:05:22;;;;;;;;;;;461.10;2380.80;;;;;;5033507;28;20025;-81
2021/06/16 05:07:47;;;;;;;15.73;7.88;;;461.20;2380.80;;;;;;5033238;28;19909;-81
2021/06/16 05:10:13;;;;;;;18.60;6.78;;;461.10;2380.80;;;;;;5032806;28;20021;-80
2021/06/16 05:12:39;;;;;;;13.13;7.20;;;461.10;2380.80;;;;;;5034108;28;20031;-81
2021/06/16 05:15:06;;;;;;;10.88;7.22;;;461.20;2380.80;;;;;;5032970;28;20018;-79
2021/06/16 05:17:32;;;;;;;10.48;6.85;;;461.00;2380.80;;;;;;5032778;28;20021;-79
2021/06/16 05:19:58;;;;;;;13.07;6.85;;;461.20;2380.80;;;;;;5033184;28;20361;-79
2021/06/16 05:22:25;;;;;;;9.00;6.13;;;461.20;2380.80;;;;;;5033243;28;20024;-79
2021/06/16 05:24:52;;;;;;;13.27;7.18;;;461.30;2380.80;;;;;;5032865;28;20365;-80
2021/06/16 05:27:17;;;;;;;12.45;7.03;;;461.40;2380.80;;;;;;5033048;28;20454;-79
2021/06/16 05:29:45;;;;;;;9.63;6.45;;;461.50;2380.80;;;;;;5032957;28;20025;-80
2021/06/16 05:32:12;;;;;;;18.45;8.23;;;461.40;2380.80;;;;;;5032860;28;20025;-80
2021/06/16 05:34:38;;;;;;;14.82;6.88;;;461.50;2380.80;;;;;;5032570;28;20021;-80
2021/06/16 05:37:07;;;;;;;16.77;7.38;;;461.50;2380.80;;;;;;5032741;28;20033;-79
2021/06/16 05:39:33;;;;;;;11.65;8.20;;;461.70;2380.80;;;;;;5032826;28;20025;-80
2021/06/16 05:41:59;;;;;;;15.13;8.38;;;486.40;2380.80;;;;;;5032499;28;20051;-80
2021/06/16 05:44:25;;;;;;;11.05;7.22;;;486.40;2380.80;;;;;;5032820;28;20517;-80
2021/06/16 05:46:51;;;;;;;17.42;8.38;;;486.50;2380.80;;;;;;5032720;28;20033;-79
2021/06/16 05:49:17;;;;;;;20.17;8.20;;;486.50;2380.80;;;;;;5033706;28;20087;-80
2021/06/16 05:51:42;;;;;;;23.25;9.50;;;486.50;2380.80;;;;;;5033876;28;20018;-80
2021/06/16 05:54:11;;;;;;;18.40;8.73;;;486.40;2380.80;;;;;;5032743;28;20025;-80
2021/06/16 05:56:41;;;;;;;12.55;8.63;;;486.40;2380.80;;;;;;5032356;28;20029;-80
2021/06/16 05:59:07;;;;;;;12.15;7.53;;;486.50;2380.80;;;;;;5033577;28;20372;-80
2021/06/16 06:01:34;;;;;;;18.08;7.75;;;486.60;2380.80;;;;;;5031933;28;20045;-81
2021/06/16 06:04:05;;;;;;;17.95;9.45;;;486.40;2380.80;;;;;;5032697;28;20022;-80
2021/06/16 06:06:32;;;;;;;13.35;7.82;;;486.40;2380.80;;;;;;5032546;28;20029;-80
2021/06/16 06:08:58;;;;;;;13.27;7.85;;;486.60;2380.80;;;;;;5032428;28;20026;-80
2021/06/16 06:11:24;;;;;;;13.45;7.70;;;486.70;2380.80;;;;;;5032546;28;20029;-80
2021/06/16 06:13:50;;;;;;;13.00;7.28;;;487.00;2380.80;;;;;;5032604;28;20105;-80
2021/06/16 06:16:16;;;;;;;8.88;5.75;;;487.20;2380.80;;;;;;5032283;28;20049;-80
2021/06/16 06:18:43;;;;;;;16.65;7.88;;;512.00;2380.80;;;;;;5033724;28;20014;-79
2021/06/16 06:21:09;;;;;;;8.95;5.00;;;512.40;2380.80;;;;;;5032499;28;20033;-79
2021/06/16 06:23:35;;;;;;;11.63;4.18;;;512.70;2380.80;;;;;;5032014;28;20018;-79
2021/06/16 06:26:01;;;;;;;9.32;5.40;;;512.70;2380.80;;;;;;5033169;28;20049;-80
2021/06/16 06:28:26;;;;;;;10.30;4.18;;;512.80;2380.80;;;;;;5032289;28;20429;-80
2021/06/16 06:30:52;;;;;;;9.35;4.38;;;512.90;2380.80;;;;;;5032010;28;20027;-80
2021/06/16 06:33:18;;;;;;;7.95;5.07;;;537.60;2406.40;;;;;;5032360;28;20488;-80
2021/06/16 06:35:44;;;;;;;8.32;4.00;;;537.70;2406.40;;;;;;5032494;28;20017;-80
2021/06/16 06:38:12;;;;;;;7.47;4.28;;;538.00;2406.40;;;;;;5033487;28;20100;-80
2021/06/16 06:40:37;;;;;;;5.15;3.55;;;538.20;2406.40;;;;;;5032224;28;20022;-80
2021/06/16 06:43:03;;;;;;;5.35;3.40;;;538.40;2406.40;;;;;;5033177;28;20450;-80
2021/06/16 06:45:29;;;;;;;7.03;3.42;;;538.20;2406.40;;;;;;5031977;28;20070;-81
2021/06/16 06:47:55;;;;;;;8.63;3.78;;;538.20;2406.40;;;;;;5032955;28;20377;-80
2021/06/16 06:50:21;;;;;;;9.10;3.92;;;538.30;2406.40;;;;;;5032188;28;20108;-80
2021/06/16 06:52:48;;;;;;;8.07;4.00;;;538.40;2406.40;;;;;;5031768;28;20025;-80
2021/06/16 06:55:15;;;;;;;7.43;3.60;;;538.50;2406.40;;;;;;5033336;28;20022;-80
2021/06/16 06:57:41;;;;;;;6.57;3.72;;;538.50;2406.40;;;;;;5031758;28;20391;-80
2021/06/16 07:00:09;;;;;;;7.63;3.85;;;538.50;2406.40;;;;;;5031854;28;20028;-80
2021/06/16 07:02:34;;;;;;;6.95;3.55;;;563.20;2432.00;;;;;;5031723;28;20060;-80
2021/06/16 07:05:00;;;;;;;6.78;3.40;;;563.30;2432.00;;;;;;5033597;28;20025;-80
2021/06/16 07:07:26;;;;;;;7.03;4.15;;;563.40;2432.00;;;;;;5035409;28;20547;-80
2021/06/16 07:09:52;;;;;;;5.40;3.67;;;563.40;2432.00;;;;;;5035743;28;20028;-80
2021/06/16 07:12:18;;;;;;;8.73;3.60;;;563.50;2432.00;;;;;;5035093;28;20468;-81
2021/06/16 07:14:45;;;;;;;7.25;3.92;;;563.70;2432.00;;;;;;5036555;28;20029;-80
2021/06/16 07:17:11;;;;;;;7.93;3.85;;;563.90;2432.00;;;;;;5035275;28;20025;-80
2021/06/16 07:19:37;;;;;;;9.43;3.63;;;563.90;2432.00;;;;;;5035019;28;20116;-80
2021/06/16 07:22:04;;;;;;;8.73;4.78;;;563.70;2432.00;;;;;;5036650;28;20104;-80
2021/06/16 07:24:30;;;;;;;8.73;3.55;;;563.70;2432.00;;;;;;5035186;28;20484;-80
2021/06/16 07:26:56;;;;;;;9.70;4.93;;;563.70;2432.00;;;;;;5034868;28;20530;-80
2021/06/16 07:29:23;;;;;;;6.88;3.83;;;563.70;2432.00;;;;;;5035133;28;20021;-80
2021/06/16 07:31:50;;;;;;;8.85;4.10;;;563.70;2432.00;;;;;;5035064;28;20026;-79
2021/06/16 07:34:16;;;;;;;7.15;3.53;;;563.80;2432.00;;;;;;5034677;28;20026;-80
2021/06/16 07:36:42;;;;;;;11.57;4.18;;;563.80;2432.00;;;;;;5034924;28;20029;-79
2021/06/16 07:39:08;;;;;;;6.13;3.55;;;563.90;2432.00;;;;;;5034672;28;20079;-79
2021/06/16 07:41:35;;;;;;;11.68;4.40;;;563.90;2432.00;;;;;;5044825;28;20017;-78
2021/06/16 07:44:00;;;;;;;8.40;4.30;;;564.10;2432.00;;;;;;5044421;28;20053;-78
2021/06/16 07:46:26;;;;;;;7.22;3.97;;;588.80;2432.00;;;;;;5043280;28;20087;-78
2021/06/16 07:48:52;;;;;;;8.13;3.92;;;564.10;2432.00;;;;;;5046187;28;20017;-78
2021/06/16 07:51:18;;;;;;;9.75;4.53;;;589.00;2432.00;;;;;;5043834;28;20013;-78
2021/06/16 07:53:44;;;;;;;8.50;3.97;;;589.20;2432.00;;;;;;5045822;28;20025;-79
2021/06/16 07:56:10;;;;;;;7.13;3.70;;;589.10;2432.00;;;;;;5045251;28;20021;-78
2021/06/16 07:58:36;;;;;;;6.28;3.50;;;589.10;2432.00;;;;;;5043290;28;20108;-81
2021/06/16 08:01:02;;;;;;;4.50;3.30;;;589.40;2432.00;;;;;;5051276;28;20021;-78
2021/06/16 08:03:28;;;;;;;9.20;3.85;;;589.20;2432.00;;;;;;5055333;28;20116;-79
2021/06/16 08:05:55;;;;;;;8.02;4.30;;;589.20;2432.00;;;;;;5045491;28;20175;-79
2021/06/16 08:08:22;;;;;;;10.75;4.10;;;589.10;2432.00;;;;;;5041272;28;20021;-78
2021/06/16 08:10:48;;;;;;;10.57;3.97;;;589.00;2432.00;;;;;;5045129;28;20453;-79
2021/06/16 08:13:14;;;;;;;9.48;4.70;;;589.00;2432.00;;;;;;5044062;28;20029;-79
2021/06/16 08:15:40;;;;;;;7.65;3.97;;;588.90;2432.00;;;;;;5042137;28;20473;-79
2021/06/16 08:18:06;;;;;;;10.05;3.63;;;588.90;2432.00;;;;;;5044335;28;20060;-79
2021/06/16 08:20:32;;;;;;;9.70;3.88;;;588.90;2432.00;;;;;;5044900;28;20028;-78
2021/06/16 08:22:58;;;;;;;6.18;3.53;;;588.90;2432.00;;;;;;5044134;28;20013;-78
2021/06/16 08:25:24;;;;;;;8.63;4.75;;;588.90;2432.00;;;;;;5050820;28;20047;-78
2021/06/16 08:27:50;;;;;;;9.07;3.88;;;588.90;2432.00;;;;;;5052511;28;20487;-78
2021/06/16 08:30:17;;;;;;;12.00;4.30;;;588.90;2432.00;;;;;;5052817;28;20020;-78
2021/06/16 08:32:43;;;;;;;7.93;4.10;;;588.90;2432.00;;;;;;5051121;28;20079;-78
2021/06/16 08:35:10;;;;;;;7.53;4.20;;;588.90;2432.00;;;;;;5040252;28;20376;-80
2021/06/16 08:37:36;;;;;;;6.28;4.13;;;588.80;2432.00;;;;;;5054555;28;20021;-80
2021/06/16 08:40:04;;;;;;;6.75;3.70;;;564.10;2432.00;;;;;;5052382;28;20028;-80
2021/06/16 08:42:30;;;;;;;9.95;4.22;;;588.80;2432.00;;;;;;5053117;28;20017;-80
2021/06/16 08:44:58;;;;;;;6.93;3.60;;;588.90;2432.00;;;;;;5055163;28;20025;-80
2021/06/16 08:47:25;;;;;;;7.38;3.90;;;589.30;2432.00;;;;;;5053505;28;20037;-81
2021/06/16 08:49:51;;;;;;;10.23;4.07;;;589.60;2406.40;;;;;;5053147;28;20526;-81
2021/06/16 08:52:17;;;;;;;10.95;4.88;;;614.40;2406.40;;;;;;5053421;28;20032;-79
2021/06/16 08:54:43;;;;;;;13.05;4.38;;;614.70;2406.40;;;;;;5054759;28;20025;-79
2021/06/16 08:57:09;;;;;;;16.00;5.93;;;589.70;2406.40;;;;;;5053164;28;20364;-80
2021/06/16 08:59:35;;;;;;;11.65;5.32;;;589.60;2406.40;;;;;;5053471;28;20471;-80
2021/06/16 09:02:02;;;;;;;11.10;4.22;;;589.60;2432.00;;;;;;5052891;28;20052;-78
2021/06/16 09:04:49;;;;;;;5.82;4.20;;;589.40;2432.00;;;;;;5053016;28;20111;-79
2021/06/16 09:07:20;;;;;;;9.10;4.32;;;589.40;2432.00;;;;;;5052977;28;20024;-77
2021/06/16 09:09:48;;;;;;;6.97;3.78;;;589.40;2432.00;;;;;;5054335;28;20741;-77
2021/06/16 09:12:19;;;;;;;8.57;4.15;;;589.40;2432.00;;;;;;5053661;28;20021;-77
2021/06/16 09:14:54;;;;;;;7.35;3.85;;;589.50;2432.00;;;;;;5053081;28;20032;-77
2021/06/16 09:17:21;;;;;;;6.20;3.85;;;589.60;2432.00;;;;;;5054213;28;20024;-78
2021/06/16 09:19:53;;;;;;;6.78;3.80;;;589.70;2406.40;;;;;;5052549;28;20032;-78
2021/06/16 09:22:27;;;;;;;12.02;5.28;;;589.70;2406.40;;;;;;5052932;28;20024;-77
2021/06/16 09:24:55;;;;;;;9.88;6.18;;;589.70;2406.40;;;;;;5052519;28;20075;-77
2021/06/16 09:27:41;;;;;;;13.10;6.15;;;589.70;2406.40;;;;;;5052594;28;20375;-77
2021/06/16 09:30:26;;;;;;;7.25;4.60;;;614.40;2406.40;;;;;;5053090;28;20407;-79
2021/06/16 09:32:58;;;;;;;12.88;4.25;;;614.50;2406.40;;;;;;5037787;28;20049;-78
2021/06/16 09:35:30;;;;;;;5.38;4.03;;;614.60;2380.80;;;;;;5032825;28;20021;-76
2021/06/16 09:38:00;;;;;;;8.48;3.53;;;614.60;2380.80;;;;;;5032543;28;20120;-78
2021/06/16 09:40:31;;;;;;;6.20;3.75;;;614.60;2355.20;;;;;;5034085;28;20038;-78
2021/06/16 09:43:00;;;;;;;8.27;3.45;;;614.70;2355.20;;;;;;5034021;28;20335;-78
2021/06/16 09:45:27;;;;;;;6.28;3.60;;;614.70;2355.20;;;;;;5032820;28;20026;-78
2021/06/16 09:47:52;;;;;;;5.78;3.42;;;615.10;2329.60;;;;;;5033811;28;20065;-78
2021/06/16 09:50:26;;;;;;;5.68;3.17;;;640.00;2278.40;;;;;;5032745;28;20061;-78
2021/06/16 09:52:53;;;;;;;8.43;3.92;;;615.30;2304.00;;;;;;5032389;28;20407;-77
2021/06/16 09:55:26;;;;;;;6.65;3.67;;;640.40;2278.40;;;;;;5034038;28;20025;-77
2021/06/16 09:58:05;;;;;;;12.15;4.97;;;640.90;2227.20;;;;;;5033856;28;20036;-78
2021/06/16 10:00:37;;;;;;;7.60;3.40;;;665.70;2227.20;;;;;;5033250;28;20361;-77
2021/06/16 10:03:12;;;;;;;6.35;4.00;;;666.00;2201.60;;;;;;5032309;28;20049;-79
2021/06/16 10:06:03;;;;;;;6.85;3.65;;;666.10;2201.60;;;;;;5032543;28;20030;-78
2021/06/16 10:08:30;;;;;;;6.85;3.30;;;666.50;2176.00;;;;;;5033371;28;20473;-77
2021/06/16 10:10:56;;;;;;;9.10;2.97;;;691.40;2150.40;;;;;;5037679;28;20017;-80
2021/06/16 10:13:26;;;;;;;6.55;4.25;;;691.70;2099.20;;;;;;5038247;28;20171;-81
2021/06/16 10:15:56;;;;;;;8.30;3.55;;;691.90;2073.60;;;;;;5033525;28;20013;-79
2021/06/16 10:18:23;;;;;;;7.45;3.53;;;692.10;2048.00;;;;;;5032444;28;20469;-81
2021/06/16 10:20:51;;;;;;;4.75;3.45;;;716.90;2022.40;;;;;;5033559;28;20029;-78
2021/06/16 10:23:17;;;;;;;4.53;2.72;;;717.20;1996.80;;;;;;5032892;28;20018;-78
2021/06/16 10:25:43;;;;;;;7.78;3.33;;;717.40;1920.00;;;;;;5033093;28;20102;-78
2021/06/16 10:28:11;;;;;;;7.38;2.72;;;717.50;1971.20;;;;;;5033138;28;20437;-78
2021/06/16 10:30:43;;;;;;;5.43;2.90;;;717.40;1920.00;;;;;;5032881;28;20021;-79
2021/06/16 10:33:33;;;;;;;4.88;2.85;;;717.40;1894.40;;;;;;5032717;28;20445;-77
2021/06/16 10:36:39;;;;;;;5.72;3.10;;;717.60;1894.40;;;;;;5034813;28;20030;-81
2021/06/16 10:39:07;;;;;;;16.13;3.45;;;742.40;1894.40;;;;;;4993342;28;20634;-78
2021/06/16 10:41:39;;;;;;;4.82;2.80;;;742.60;1868.80;;;;;;5026901;28;20504;-77
2021/06/16 10:44:23;;;;;;;6.95;3.53;;;742.80;1843.20;;;;;;5036537;28;20017;-78
2021/06/16 10:46:59;;;;;;;5.30;3.03;;;742.60;1843.20;;;;;;5037242;28;20072;-79
2021/06/16 10:49:40;;;;;;;11.60;4.15;;;742.50;1843.20;;;;;;5036645;28;20040;-77
2021/06/16 10:52:08;;;;;;;7.63;5.07;;;742.50;1817.60;;;;;;5036965;28;20112;-76
2021/06/16 10:54:34;;;;;;;7.97;4.57;;;742.90;1817.60;;;;;;5036709;28;20026;-77
2021/06/16 10:57:04;;;;;;;7.90;4.60;;;742.90;1817.60;;;;;;5036323;28;20472;-77
2021/06/16 10:59:43;;;;;;;7.55;4.93;;;742.50;1843.20;;;;;;5050011;28;20401;-75
2021/06/16 11:02:38;;;;;;;9.55;5.38;;;717.50;1843.20;;;;;;5054099;28;20048;-76
2021/06/16 11:05:43;;;;;;;8.57;5.05;;;717.10;1843.20;;;;;;5056395;28;20028;-77
2021/06/16 11:08:14;;;;;;;5.45;3.42;;;716.80;1843.20;;;;;;5056117;28;20029;-78
2021/06/16 11:10:53;;;;;;;5.88;3.40;;;692.10;1817.60;;;;;;5058018;28;20028;-78
2021/06/16 11:13:36;;;;;;;7.10;4.22;;;716.90;1792.00;;;;;;5058523;28;20017;-76
2021/06/16 11:16:37;;;;;;;7.40;3.95;;;717.00;1843.20;;;;;;5059192;28;20017;-76
2021/06/16 11:19:27;;;;;;;8.25;3.72;;;717.00;1843.20;;;;;;5058218;28;20025;-77
2021/06/16 11:21:55;;;;;;;5.18;3.00;;;692.10;1843.20;;;;;;5055050;28;20013;-77
2021/06/16 11:24:21;;;;;;;5.05;3.17;;;691.90;1868.80;;;;;;5055092;28;20083;-74
2021/06/16 11:26:48;;;;;;;6.35;3.25;;;691.90;1843.20;;;;;;5057429;28;20034;-77
2021/06/16 11:29:51;;;;;;;8.35;3.17;;;691.90;1868.80;;;;;;5044647;28;20029;-78
2021/06/16 11:32:17;;;;;;;7.22;3.13;;;716.80;1920.00;;;;;;5036483;28;20579;-78
2021/06/16 11:34:53;;;;;;;9.13;3.80;;;717.00;1894.40;;;;;;5035961;28;20053;-79
2021/06/16 11:37:55;;;;;;;4.30;2.60;;;717.70;1843.20;;;;;;5038567;28;20346;-78
2021/06/16 11:40:22;;;;;;;4.32;2.78;;;742.40;1843.20;;;;;;5042128;28;20025;-78
2021/06/16 11:42:48;;;;;;;5.60;3.22;;;717.20;1817.60;;;;;;5055689;28;20017;-80
2021/06/16 11:45:14;;;;;;;5.25;3.50;;;716.80;1868.80;;;;;;5052718;28;20025;-81
2021/06/16 11:47:40;;;;;;;11.13;9.30;;;717.40;1843.20;;;;;;5055341;28;20025;-79
2021/06/16 11:50:09;;;;;;;7.25;3.50;;;742.40;1868.80;;;;;;5041216;28;20052;-80
2021/06/16 11:52:35;;;;;;;5.22;2.72;;;742.90;1766.40;;;;;;5035955;28;20106;-79
2021/06/16 11:55:01;;;;;;;4.75;2.40;;;743.00;1766.40;;;;;;5036378;28;20029;-78
2021/06/16 11:57:28;;;;;;;10.73;3.22;;;742.90;1740.80;;;;;;5035095;28;20167;-80
2021/06/16 11:59:54;;;;;;;4.70;2.28;;;742.60;1766.40;;;;;;5034854;28;20029;-78
2021/06/16 12:02:28;;;;;;;5.25;3.40;;;743.00;1715.20;;;;;;5034910;28;20385;-80
2021/06/16 12:05:08;;;;;;;4.43;2.20;;;743.10;1689.60;;;;;;5035099;28;20119;-80
2021/06/16 12:07:39;;;;;;;7.80;3.35;;;768.10;1638.40;;;;;;5034522;28;20041;-79
2021/06/16 12:10:10;;;;;;;3.95;2.05;;;768.50;1638.40;;;;;;5041340;28;20048;-79
2021/06/16 12:12:54;;;;;;;5.47;2.47;;;768.60;1638.40;;;;;;5043859;28;20025;-81
2021/06/16 12:15:24;;;;;;;5.60;2.22;;;768.90;1612.80;;;;;;5046300;28;20021;-80
2021/06/16 12:17:53;;;;;;;5.90;2.28;;;768.70;1587.20;;;;;;5054573;28;20027;-79
2021/06/16 12:20:19;;;;;;;4.63;2.70;;;793.60;1638.40;;;;;;5054361;28;20021;-81
2021/06/16 12:22:45;;;;;;;4.35;2.55;;;794.20;1638.40;;;;;;5054698;28;20112;-81
2021/06/16 12:25:31;;;;;;;3.28;2.10;;;794.10;1587.20;;;;;;5054556;28;20112;-79